sensor_id;sensor_type;location;lat;lon;timestamp;pressure;altitude;pressure_sealevel;temperature;humidity
36598;BME280;22607;49.550;11.940;2023-07-28T00:01:53;96148.03;;;17.09;100.00
36598;BME280;22607;49.550;11.940;2023-07-28T00:04:19;96149.19;;;17.13;100.00
36598;BME280;22607;49.550;11.940;2023-07-28T00:06:46;96137.66;;;17.07;100.00
36598;BME280;22607;49.550;11.940;2023-07-28T00:09:12;96142.28;;;17.12;100.00
36598;BME280;22607;49.550;11.940;2023-07-28T00:11:39;96139.75;;;17.17;100.00
36598;BME280;22607;49.550;11.940;2023-07-28T00:14:05;96138.38;;;17.14;100.00
36598;BME280;22607;49.550;11.940;2023-07-28T00:16:32;96136.88;;;17.18;100.00
36598;BME280;22607;49.550;11.940;2023-07-28T00:18:59;96134.06;;;17.13;100.00
36598;BME280;22607;49.550;11.940;2023-07-28T00:21:26;96135.34;;;17.11;100.00
36598;BME280;22607;49.550;11.940;2023-07-28T00:23:53;96135.59;;;17.09;100.00
36598;BME280;22607;49.550;11.940;2023-07-28T00:26:20;96129.22;;;16.98;100.00
36598;BME280;22607;49.550;11.940;2023-07-28T00:28:48;96137.88;;;17.05;100.00
36598;BME280;22607;49.550;11.940;2023-07-28T00:31:16;96125.56;;;17.11;100.00
36598;BME280;22607;49.550;11.940;2023-07-28T00:33:42;96123.72;;;17.12;100.00
36598;BME280;22607;49.550;11.940;2023-07-28T00:36:09;96124.47;;;17.00;100.00
36598;BME280;22607;49.550;11.940;2023-07-28T00:38:36;96135.00;;;17.07;100.00
36598;BME280;22607;49.550;11.940;2023-07-28T00:41:02;96122.88;;;16.99;100.00
36598;BME280;22607;49.550;11.940;2023-07-28T00:43:29;96129.00;;;17.00;100.00
36598;BME280;22607;49.550;11.940;2023-07-28T00:45:55;96115.16;;;16.98;100.00
36598;BME280;22607;49.550;11.940;2023-07-28T00:48:22;96121.16;;;16.93;100.00
36598;BME280;22607;49.550;11.940;2023-07-28T00:50:49;96119.28;;;16.93;100.00
36598;BME280;22607;49.550;11.940;2023-07-28T00:53:17;96128.84;;;16.83;100.00
36598;BME280;22607;49.550;11.940;2023-07-28T00:55:45;96132.53;;;16.82;100.00
36598;BME280;22607;49.550;11.940;2023-07-28T00:58:12;96112.16;;;16.70;100.00
36598;BME280;22607;49.550;11.940;2023-07-28T01:00:38;96116.28;;;16.66;100.00
36598;BME280;22607;49.550;11.940;2023-07-28T01:03:05;96120.44;;;16.86;100.00
36598;BME280;22607;49.550;11.940;2023-07-28T01:08:52;96117.44;;;16.70;100.00
36598;BME280;22607;49.550;11.940;2023-07-28T01:11:21;96117.91;;;16.91;100.00
36598;BME280;22607;49.550;11.940;2023-07-28T01:13:48;96115.59;;;16.71;100.00
36598;BME280;22607;49.550;11.940;2023-07-28T01:16:14;96120.78;;;16.77;100.00
36598;BME280;22607;49.550;11.940;2023-07-28T01:18:41;96116.75;;;16.75;100.00
36598;BME280;22607;49.550;11.940;2023-07-28T01:21:16;96114.09;;;16.63;100.00
36598;BME280;22607;49.550;11.940;2023-07-28T01:24:04;96100.72;;;16.70;100.00
36598;BME280;22607;49.550;11.940;2023-07-28T01:26:34;96105.47;;;16.91;100.00
36598;BME280;22607;49.550;11.940;2023-07-28T01:29:03;96097.72;;;16.66;100.00
36598;BME280;22607;49.550;11.940;2023-07-28T01:31:30;96094.38;;;16.59;100.00
36598;BME280;22607;49.550;11.940;2023-07-28T01:33:57;96101.41;;;16.65;100.00
36598;BME280;22607;49.550;11.940;2023-07-28T01:36:23;96111.66;;;16.61;100.00
36598;BME280;22607;49.550;11.940;2023-07-28T01:38:50;96107.63;;;16.59;100.00
36598;BME280;22607;49.550;11.940;2023-07-28T01:41:17;96106.72;;;16.65;100.00
36598;BME280;22607;49.550;11.940;2023-07-28T01:43:43;96103.03;;;16.66;100.00
36598;BME280;22607;49.550;11.940;2023-07-28T01:46:10;96105.78;;;16.71;100.00
36598;BME280;22607;49.550;11.940;2023-07-28T01:48:36;96106.72;;;16.65;100.00
36598;BME280;22607;49.550;11.940;2023-07-28T01:51:03;96109.00;;;16.73;100.00
36598;BME280;22607;49.550;11.940;2023-07-28T01:53:29;96099.94;;;16.81;100.00
36598;BME280;22607;49.550;11.940;2023-07-28T01:55:56;96100.38;;;16.66;100.00
36598;BME280;22607;49.550;11.940;2023-07-28T01:58:23;96111.66;;;16.61;100.00
36598;BME280;22607;49.550;11.940;2023-07-28T02:00:49;96106.72;;;16.77;100.00
36598;BME280;22607;49.550;11.940;2023-07-28T02:03:16;96108.22;;;16.73;100.00
36598;BME280;22607;49.550;11.940;2023-07-28T02:05:43;96111.22;;;16.76;100.00
36598;BME280;22607;49.550;11.940;2023-07-28T02:08:11;96108.44;;;16.71;100.00
36598;BME280;22607;49.550;11.940;2023-07-28T02:10:37;96108.56;;;16.76;100.00
36598;BME280;22607;49.550;11.940;2023-07-28T02:13:04;96109.38;;;16.77;100.00
36598;BME280;22607;49.550;11.940;2023-07-28T02:15:30;96110.28;;;16.83;100.00
36598;BME280;22607;49.550;11.940;2023-07-28T02:17:57;96107.75;;;16.88;100.00
36598;BME280;22607;49.550;11.940;2023-07-28T02:20:23;96118.94;;;16.78;100.00
36598;BME280;22607;49.550;11.940;2023-07-28T02:22:50;96114.91;;;16.87;100.00
36598;BME280;22607;49.550;11.940;2023-07-28T02:25:16;96111.44;;;16.87;100.00
36598;BME280;22607;49.550;11.940;2023-07-28T02:27:43;96115.03;;;16.92;100.00
36598;BME280;22607;49.550;11.940;2023-07-28T02:30:10;96118.38;;;17.00;100.00
36598;BME280;22607;49.550;11.940;2023-07-28T02:32:37;96118.94;;;16.90;100.00
36598;BME280;22607;49.550;11.940;2023-07-28T02:35:04;96116.41;;;16.71;100.00
36598;BME280;22607;49.550;11.940;2023-07-28T02:37:31;96124.16;;;16.97;100.00
36598;BME280;22607;49.550;11.940;2023-07-28T02:39:57;96128.06;;;16.70;100.00
36598;BME280;22607;49.550;11.940;2023-07-28T02:42:24;96118.25;;;16.95;100.00
36598;BME280;22607;49.550;11.940;2023-07-28T02:44:52;96127.56;;;16.73;100.00
36598;BME280;22607;49.550;11.940;2023-07-28T02:47:19;96127.13;;;16.88;100.00
36598;BME280;22607;49.550;11.940;2023-07-28T02:49:45;96129.09;;;16.93;100.00
36598;BME280;22607;49.550;11.940;2023-07-28T02:52:13;96130.50;;;16.84;100.00
36598;BME280;22607;49.550;11.940;2023-07-28T02:54:39;96131.88;;;16.98;100.00
36598;BME280;22607;49.550;11.940;2023-07-28T02:57:06;96135.69;;;17.02;100.00
36598;BME280;22607;49.550;11.940;2023-07-28T02:59:33;96139.72;;;16.93;100.00
36598;BME280;22607;49.550;11.940;2023-07-28T03:02:00;96134.75;;;16.85;100.00
36598;BME280;22607;49.550;11.940;2023-07-28T03:04:27;96136.47;;;16.91;100.00
36598;BME280;22607;49.550;11.940;2023-07-28T03:06:53;96139.00;;;16.98;100.00
36598;BME280;22607;49.550;11.940;2023-07-28T03:09:20;96132.78;;;16.92;100.00
36598;BME280;22607;49.550;11.940;2023-07-28T03:11:47;96136.13;;;16.99;100.00
36598;BME280;22607;49.550;11.940;2023-07-28T03:14:14;96134.53;;;16.98;100.00
36598;BME280;22607;49.550;11.940;2023-07-28T03:16:41;96145.34;;;16.97;100.00
36598;BME280;22607;49.550;11.940;2023-07-28T03:19:09;96159.88;;;16.82;100.00
36598;BME280;22607;49.550;11.940;2023-07-28T03:21:35;96146.38;;;16.72;100.00
36598;BME280;22607;49.550;11.940;2023-07-28T03:24:05;96145.59;;;16.95;100.00
36598;BME280;22607;49.550;11.940;2023-07-28T03:26:32;96143.97;;;16.82;100.00
36598;BME280;22607;49.550;11.940;2023-07-28T03:28:59;96145.13;;;16.86;100.00
36598;BME280;22607;49.550;11.940;2023-07-28T03:31:25;96148.13;;;16.78;100.00
36598;BME280;22607;49.550;11.940;2023-07-28T03:33:52;96139.81;;;16.74;100.00
36598;BME280;22607;49.550;11.940;2023-07-28T03:36:19;96141.66;;;16.86;100.00
36598;BME280;22607;49.550;11.940;2023-07-28T03:38:45;96146.63;;;16.94;100.00
36598;BME280;22607;49.550;11.940;2023-07-28T03:41:13;96144.31;;;16.86;100.00
36598;BME280;22607;49.550;11.940;2023-07-28T03:43:40;96145.69;;;16.76;100.00
36598;BME280;22607;49.550;11.940;2023-07-28T03:46:07;96140.06;;;16.85;100.00
36598;BME280;22607;49.550;11.940;2023-07-28T03:48:34;96136.03;;;16.94;100.00
36598;BME280;22607;49.550;11.940;2023-07-28T03:51:01;96143.50;;;16.97;100.00
36598;BME280;22607;49.550;11.940;2023-07-28T03:53:27;96141.88;;;16.96;100.00
36598;BME280;22607;49.550;11.940;2023-07-28T03:55:54;96136.91;;;16.88;100.00
36598;BME280;22607;49.550;11.940;2023-07-28T03:58:24;96139.47;;;16.83;100.00
36598;BME280;22607;49.550;11.940;2023-07-28T04:00:53;96126.69;;;17.03;100.00
36598;BME280;22607;49.550;11.940;2023-07-28T04:03:20;96143.19;;;17.05;100.00
36598;BME280;22607;49.550;11.940;2023-07-28T04:05:46;96150.47;;;17.10;100.00
36598;BME280;22607;49.550;11.940;2023-07-28T04:08:13;96143.91;;;17.13;100.00
36598;BME280;22607;49.550;11.940;2023-07-28T04:10:40;96151.84;;;17.13;100.00
36598;BME280;22607;49.550;11.940;2023-07-28T04:13:08;96153.81;;;17.17;100.00
36598;BME280;22607;49.550;11.940;2023-07-28T04:15:34;96156.22;;;17.07;100.00
36598;BME280;22607;49.550;11.940;2023-07-28T04:18:01;96168.31;;;17.03;100.00
36598;BME280;22607;49.550;11.940;2023-07-28T04:20:28;96158.22;;;17.12;100.00
36598;BME280;22607;49.550;11.940;2023-07-28T04:22:54;96162.91;;;17.10;100.00
36598;BME280;22607;49.550;11.940;2023-07-28T04:25:21;96162.56;;;17.18;100.00
36598;BME280;22607;49.550;11.940;2023-07-28T04:27:48;96151.03;;;17.12;100.00
36598;BME280;22607;49.550;11.940;2023-07-28T04:30:14;96142.84;;;17.26;100.00
36598;BME280;22607;49.550;11.940;2023-07-28T04:32:41;96154.16;;;17.21;100.00
36598;BME280;22607;49.550;11.940;2023-07-28T04:35:07;96157.38;;;17.11;100.00
36598;BME280;22607;49.550;11.940;2023-07-28T04:37:34;96171.09;;;17.20;100.00
36598;BME280;22607;49.550;11.940;2023-07-28T04:40:00;96152.53;;;17.20;100.00
36598;BME280;22607;49.550;11.940;2023-07-28T04:42:27;96150.81;;;17.26;100.00
36598;BME280;22607;49.550;11.940;2023-07-28T04:44:54;96155.16;;;17.32;100.00
36598;BME280;22607;49.550;11.940;2023-07-28T04:47:20;96161.41;;;17.14;100.00
36598;BME280;22607;49.550;11.940;2023-07-28T04:49:47;96163.25;;;17.25;100.00
36598;BME280;22607;49.550;11.940;2023-07-28T04:52:13;96156.34;;;17.24;100.00
36598;BME280;22607;49.550;11.940;2023-07-28T04:54:40;96159.91;;;17.30;100.00
36598;BME280;22607;49.550;11.940;2023-07-28T04:57:07;96165.91;;;17.25;100.00
36598;BME280;22607;49.550;11.940;2023-07-28T04:59:33;96148.59;;;17.23;100.00
36598;BME280;22607;49.550;11.940;2023-07-28T05:02:00;96144.56;;;17.44;100.00
36598;BME280;22607;49.550;11.940;2023-07-28T05:04:26;96150.25;;;17.24;100.00
36598;BME280;22607;49.550;11.940;2023-07-28T05:06:53;96146.38;;;17.55;100.00
36598;BME280;22607;49.550;11.940;2023-07-28T05:09:20;96137.88;;;17.53;100.00
36598;BME280;22607;49.550;11.940;2023-07-28T05:11:46;96139.94;;;17.51;100.00
36598;BME280;22607;49.550;11.940;2023-07-28T05:14:14;96148.00;;;17.56;100.00
36598;BME280;22607;49.550;11.940;2023-07-28T05:16:40;96137.56;;;17.67;100.00
36598;BME280;22607;49.550;11.940;2023-07-28T05:19:07;96147.09;;;17.63;100.00
36598;BME280;22607;49.550;11.940;2023-07-28T05:21:34;96138.28;;;17.62;100.00
36598;BME280;22607;49.550;11.940;2023-07-28T05:24:01;96155.47;;;17.71;100.00
36598;BME280;22607;49.550;11.940;2023-07-28T05:26:27;96152.69;;;17.78;100.00
36598;BME280;22607;49.550;11.940;2023-07-28T05:28:54;96134.19;;;17.83;100.00
36598;BME280;22607;49.550;11.940;2023-07-28T05:31:20;96143.44;;;17.81;100.00
36598;BME280;22607;49.550;11.940;2023-07-28T05:33:47;96152.56;;;17.85;100.00
36598;BME280;22607;49.550;11.940;2023-07-28T05:36:14;96157.88;;;17.85;100.00
36598;BME280;22607;49.550;11.940;2023-07-28T05:38:40;96157.28;;;17.83;100.00
36598;BME280;22607;49.550;11.940;2023-07-28T05:41:07;96164.25;;;17.72;100.00
36598;BME280;22607;49.550;11.940;2023-07-28T05:43:33;96149.09;;;17.84;100.00
36598;BME280;22607;49.550;11.940;2023-07-28T05:46:01;96162.84;;;17.69;100.00
36598;BME280;22607;49.550;11.940;2023-07-28T05:48:27;96176.13;;;17.81;100.00
36598;BME280;22607;49.550;11.940;2023-07-28T05:50:54;96168.41;;;17.68;100.00
36598;BME280;22607;49.550;11.940;2023-07-28T05:53:21;96168.03;;;17.76;100.00
36598;BME280;22607;49.550;11.940;2023-07-28T05:55:48;96170.66;;;17.88;100.00
36598;BME280;22607;49.550;11.940;2023-07-28T05:58:15;96165.56;;;17.98;100.00
36598;BME280;22607;49.550;11.940;2023-07-28T06:00:41;96162.75;;;18.17;100.00
36598;BME280;22607;49.550;11.940;2023-07-28T06:03:11;96164.69;;;18.22;100.00
36598;BME280;22607;49.550;11.940;2023-07-28T06:05:41;96174.28;;;18.23;100.00
36598;BME280;22607;49.550;11.940;2023-07-28T06:08:08;96172.38;;;18.35;100.00
36598;BME280;22607;49.550;11.940;2023-07-28T06:10:35;96173.53;;;18.40;100.00
36598;BME280;22607;49.550;11.940;2023-07-28T06:13:03;96171.34;;;18.54;100.00
36598;BME280;22607;49.550;11.940;2023-07-28T06:15:29;96169.75;;;18.53;100.00
36598;BME280;22607;49.550;11.940;2023-07-28T06:17:56;96169.66;;;18.47;100.00
36598;BME280;22607;49.550;11.940;2023-07-28T06:20:23;96165.50;;;18.22;100.00
36598;BME280;22607;49.550;11.940;2023-07-28T06:22:49;96174.38;;;18.28;100.00
36598;BME280;22607;49.550;11.940;2023-07-28T06:25:16;96174.38;;;18.28;100.00
36598;BME280;22607;49.550;11.940;2023-07-28T06:27:43;96180.13;;;18.08;100.00
36598;BME280;22607;49.550;11.940;2023-07-28T06:30:09;96185.63;;;18.06;100.00
36598;BME280;22607;49.550;11.940;2023-07-28T06:32:36;96183.75;;;17.78;100.00
36598;BME280;22607;49.550;11.940;2023-07-28T06:35:03;96187.16;;;18.02;100.00
36598;BME280;22607;49.550;11.940;2023-07-28T06:37:30;96182.97;;;18.18;100.00
36598;BME280;22607;49.550;11.940;2023-07-28T06:39:56;96192.59;;;18.07;100.00
36598;BME280;22607;49.550;11.940;2023-07-28T06:42:23;96183.19;;;18.17;100.00
36598;BME280;22607;49.550;11.940;2023-07-28T06:44:50;96193.25;;;18.44;100.00
36598;BME280;22607;49.550;11.940;2023-07-28T06:47:18;96196.53;;;18.34;100.00
36598;BME280;22607;49.550;11.940;2023-07-28T06:49:44;96195.34;;;18.42;100.00
36598;BME280;22607;49.550;11.940;2023-07-28T06:52:11;96193.22;;;18.27;100.00
36598;BME280;22607;49.550;11.940;2023-07-28T06:54:38;96193.72;;;18.41;100.00
36598;BME280;22607;49.550;11.940;2023-07-28T06:57:05;96198.41;;;18.33;100.00
36598;BME280;22607;49.550;11.940;2023-07-28T06:59:33;96205.78;;;18.31;100.00
36598;BME280;22607;49.550;11.940;2023-07-28T07:01:59;96189.56;;;18.45;100.00
36598;BME280;22607;49.550;11.940;2023-07-28T07:04:26;96197.75;;;18.43;100.00
36598;BME280;22607;49.550;11.940;2023-07-28T07:06:52;96201.28;;;18.32;100.00
36598;BME280;22607;49.550;11.940;2023-07-28T07:09:19;96200.78;;;18.35;100.00
36598;BME280;22607;49.550;11.940;2023-07-28T07:11:46;96200.00;;;18.34;100.00
36598;BME280;22607;49.550;11.940;2023-07-28T07:14:13;96207.06;;;18.29;100.00
36598;BME280;22607;49.550;11.940;2023-07-28T07:16:40;96196.16;;;18.42;100.00
36598;BME280;22607;49.550;11.940;2023-07-28T07:19:07;96195.13;;;18.60;100.00
36598;BME280;22607;49.550;11.940;2023-07-28T07:21:35;96195.41;;;18.93;100.00
36598;BME280;22607;49.550;11.940;2023-07-28T07:24:03;96193.16;;;18.85;100.00
36598;BME280;22607;49.550;11.940;2023-07-28T07:26:30;96199.75;;;18.99;100.00
36598;BME280;22607;49.550;11.940;2023-07-28T07:29:00;96198.69;;;19.12;100.00
36598;BME280;22607;49.550;11.940;2023-07-28T07:31:26;96201.72;;;19.38;100.00
36598;BME280;22607;49.550;11.940;2023-07-28T07:33:53;96205.56;;;19.48;100.00
36598;BME280;22607;49.550;11.940;2023-07-28T07:36:20;96201.00;;;19.43;100.00
36598;BME280;22607;49.550;11.940;2023-07-28T07:38:47;96203.91;;;19.24;100.00
36598;BME280;22607;49.550;11.940;2023-07-28T07:41:15;96199.97;;;19.10;100.00
36598;BME280;22607;49.550;11.940;2023-07-28T07:43:50;96212.66;;;18.91;100.00
36598;BME280;22607;49.550;11.940;2023-07-28T07:46:19;96214.06;;;19.10;100.00
36598;BME280;22607;49.550;11.940;2023-07-28T07:48:46;96209.63;;;18.99;100.00
36598;BME280;22607;49.550;11.940;2023-07-28T07:51:12;96214.25;;;18.74;100.00
36598;BME280;22607;49.550;11.940;2023-07-28T07:53:39;96220.25;;;18.82;100.00
36598;BME280;22607;49.550;11.940;2023-07-28T07:56:07;96227.03;;;18.89;100.00
36598;BME280;22607;49.550;11.940;2023-07-28T07:58:36;96231.84;;;18.75;100.00
36598;BME280;22607;49.550;11.940;2023-07-28T08:01:03;96231.81;;;18.58;100.00
36598;BME280;22607;49.550;11.940;2023-07-28T08:03:31;96234.94;;;18.55;100.00
36598;BME280;22607;49.550;11.940;2023-07-28T08:06:00;96230.19;;;18.57;100.00
36598;BME280;22607;49.550;11.940;2023-07-28T08:08:27;96237.91;;;18.88;100.00
36598;BME280;22607;49.550;11.940;2023-07-28T08:10:54;96244.94;;;19.11;100.00
36598;BME280;22607;49.550;11.940;2023-07-28T08:13:21;96238.97;;;19.04;100.00
36598;BME280;22607;49.550;11.940;2023-07-28T08:15:49;96246.66;;;19.18;100.00
36598;BME280;22607;49.550;11.940;2023-07-28T08:18:15;96242.22;;;19.06;100.00
36598;BME280;22607;49.550;11.940;2023-07-28T08:20:43;96246.34;;;19.31;100.00
36598;BME280;22607;49.550;11.940;2023-07-28T08:23:09;96248.19;;;19.13;100.00
36598;BME280;22607;49.550;11.940;2023-07-28T08:25:36;96251.38;;;18.98;100.00
36598;BME280;22607;49.550;11.940;2023-07-28T08:28:03;96262.16;;;18.92;100.00
36598;BME280;22607;49.550;11.940;2023-07-28T08:30:30;96261.97;;;18.64;100.00
36598;BME280;22607;49.550;11.940;2023-07-28T08:32:59;96265.69;;;18.63;100.00
36598;BME280;22607;49.550;11.940;2023-07-28T08:35:25;96271.47;;;18.60;100.00
36598;BME280;22607;49.550;11.940;2023-07-28T08:37:52;96274.66;;;18.62;100.00
36598;BME280;22607;49.550;11.940;2023-07-28T08:40:18;96270.16;;;18.92;100.00
36598;BME280;22607;49.550;11.940;2023-07-28T08:42:45;96271.91;;;18.86;100.00
36598;BME280;22607;49.550;11.940;2023-07-28T08:45:13;96277.00;;;18.87;100.00
36598;BME280;22607;49.550;11.940;2023-07-28T08:47:40;96276.75;;;18.89;100.00
36598;BME280;22607;49.550;11.940;2023-07-28T08:50:07;96273.50;;;19.16;100.00
36598;BME280;22607;49.550;11.940;2023-07-28T08:52:33;96282.56;;;19.15;100.00
36598;BME280;22607;49.550;11.940;2023-07-28T08:55:00;96285.63;;;18.95;100.00
36598;BME280;22607;49.550;11.940;2023-07-28T08:57:27;96278.59;;;19.18;100.00
36598;BME280;22607;49.550;11.940;2023-07-28T08:59:55;96283.78;;;18.95;100.00
36598;BME280;22607;49.550;11.940;2023-07-28T09:02:22;96290.56;;;19.03;100.00
36598;BME280;22607;49.550;11.940;2023-07-28T09:04:50;96291.09;;;19.17;100.00
36598;BME280;22607;49.550;11.940;2023-07-28T09:07:17;96291.59;;;19.02;100.00
36598;BME280;22607;49.550;11.940;2023-07-28T09:09:43;96294.97;;;19.09;100.00
36598;BME280;22607;49.550;11.940;2023-07-28T09:12:10;96284.78;;;19.23;100.00
36598;BME280;22607;49.550;11.940;2023-07-28T09:14:37;96291.25;;;19.27;100.00
36598;BME280;22607;49.550;11.940;2023-07-28T09:17:08;96295.44;;;19.23;100.00
36598;BME280;22607;49.550;11.940;2023-07-28T09:19:55;96292.13;;;19.50;100.00
36598;BME280;22607;49.550;11.940;2023-07-28T09:22:22;96297.44;;;20.02;100.00
36598;BME280;22607;49.550;11.940;2023-07-28T09:24:50;96291.97;;;20.58;100.00
36598;BME280;22607;49.550;11.940;2023-07-28T09:27:21;96290.16;;;21.14;100.00
36598;BME280;22607;49.550;11.940;2023-07-28T09:29:50;96279.81;;;21.61;100.00
36598;BME280;22607;49.550;11.940;2023-07-28T09:32:26;96271.84;;;21.66;100.00
36598;BME280;22607;49.550;11.940;2023-07-28T09:35:12;96282.31;;;22.16;100.00
36598;BME280;22607;49.550;11.940;2023-07-28T09:37:41;96274.28;;;22.16;100.00
36598;BME280;22607;49.550;11.940;2023-07-28T09:40:08;96277.41;;;22.66;100.00
36598;BME280;22607;49.550;11.940;2023-07-28T09:42:39;96296.91;;;22.62;100.00
36598;BME280;22607;49.550;11.940;2023-07-28T09:45:07;96274.22;;;22.06;100.00
36598;BME280;22607;49.550;11.940;2023-07-28T09:47:53;96284.13;;;22.05;100.00
36598;BME280;22607;49.550;11.940;2023-07-28T09:50:23;96278.09;;;22.36;100.00
36598;BME280;22607;49.550;11.940;2023-07-28T09:52:53;96284.63;;;22.66;100.00
36598;BME280;22607;49.550;11.940;2023-07-28T09:55:25;96289.47;;;22.74;100.00
36598;BME280;22607;49.550;11.940;2023-07-28T09:57:54;96284.94;;;22.75;100.00
36598;BME280;22607;49.550;11.940;2023-07-28T10:00:22;96280.94;;;22.83;100.00
36598;BME280;22607;49.550;11.940;2023-07-28T10:02:50;96285.28;;;22.25;100.00
36598;BME280;22607;49.550;11.940;2023-07-28T10:05:17;96288.56;;;21.84;100.00
36598;BME280;22607;49.550;11.940;2023-07-28T10:07:45;96294.50;;;22.01;100.00
36598;BME280;22607;49.550;11.940;2023-07-28T10:10:14;96283.50;;;21.93;100.00
36598;BME280;22607;49.550;11.940;2023-07-28T10:12:52;96291.25;;;21.89;100.00
36598;BME280;22607;49.550;11.940;2023-07-28T10:15:20;96296.53;;;21.79;100.00
36598;BME280;22607;49.550;11.940;2023-07-28T10:17:50;96288.19;;;22.23;100.00
36598;BME280;22607;49.550;11.940;2023-07-28T10:20:35;96298.84;;;22.08;100.00
36598;BME280;22607;49.550;11.940;2023-07-28T10:23:07;96285.97;;;21.99;100.00
36598;BME280;22607;49.550;11.940;2023-07-28T10:25:35;96299.38;;;22.15;100.00
36598;BME280;22607;49.550;11.940;2023-07-28T10:28:02;96291.72;;;22.34;100.00
36598;BME280;22607;49.550;11.940;2023-07-28T10:30:39;96291.63;;;22.83;100.00
36598;BME280;22607;49.550;11.940;2023-07-28T10:35:57;96294.38;;;23.29;100.00
36598;BME280;22607;49.550;11.940;2023-07-28T10:38:29;96287.97;;;23.36;100.00
36598;BME280;22607;49.550;11.940;2023-07-28T10:41:08;96290.63;;;23.46;100.00
36598;BME280;22607;49.550;11.940;2023-07-28T10:43:36;96294.88;;;23.78;100.00
36598;BME280;22607;49.550;11.940;2023-07-28T10:46:04;96285.81;;;23.58;100.00
36598;BME280;22607;49.550;11.940;2023-07-28T10:48:31;96301.91;;;23.38;100.00
36598;BME280;22607;49.550;11.940;2023-07-28T10:50:58;96305.09;;;23.55;100.00
36598;BME280;22607;49.550;11.940;2023-07-28T10:53:24;96298.84;;;24.17;99.54
36598;BME280;22607;49.550;11.940;2023-07-28T10:55:52;96295.16;;;24.58;92.54
36598;BME280;22607;49.550;11.940;2023-07-28T10:58:19;96302.88;;;24.09;90.98
36598;BME280;22607;49.550;11.940;2023-07-28T11:00:46;96304.53;;;23.74;95.79
36598;BME280;22607;49.550;11.940;2023-07-28T11:03:13;96286.63;;;23.59;91.27
36598;BME280;22607;49.550;11.940;2023-07-28T11:05:40;96294.34;;;23.86;92.84
36598;BME280;22607;49.550;11.940;2023-07-28T11:08:07;96286.53;;;24.01;93.18
36598;BME280;22607;49.550;11.940;2023-07-28T11:10:34;96293.00;;;23.79;96.08
36598;BME280;22607;49.550;11.940;2023-07-28T11:13:03;96295.97;;;23.72;96.49
36598;BME280;22607;49.550;11.940;2023-07-28T11:15:46;96281.75;;;23.66;93.41
36598;BME280;22607;49.550;11.940;2023-07-28T11:18:15;96289.69;;;24.29;87.09
36598;BME280;22607;49.550;11.940;2023-07-28T11:20:42;96281.53;;;23.57;92.02
36598;BME280;22607;49.550;11.940;2023-07-28T11:23:08;96286.78;;;24.04;89.07
36598;BME280;22607;49.550;11.940;2023-07-28T11:25:35;96285.44;;;24.07;89.66
36598;BME280;22607;49.550;11.940;2023-07-28T11:28:02;96280.50;;;24.40;91.62
36598;BME280;22607;49.550;11.940;2023-07-28T11:30:32;96296.97;;;24.18;86.41
36598;BME280;22607;49.550;11.940;2023-07-28T11:33:03;96299.75;;;23.45;94.45
36598;BME280;22607;49.550;11.940;2023-07-28T11:35:30;96304.25;;;23.29;97.48
36598;BME280;22607;49.550;11.940;2023-07-28T11:37:57;96310.19;;;23.26;98.18
36598;BME280;22607;49.550;11.940;2023-07-28T11:40:24;96319.75;;;22.90;100.00
36598;BME280;22607;49.550;11.940;2023-07-28T11:42:54;96315.16;;;22.70;100.00
36598;BME280;22607;49.550;11.940;2023-07-28T11:45:22;96321.09;;;22.98;100.00
36598;BME280;22607;49.550;11.940;2023-07-28T11:47:58;96315.28;;;23.32;100.00
36598;BME280;22607;49.550;11.940;2023-07-28T11:50:30;96315.81;;;23.40;100.00
36598;BME280;22607;49.550;11.940;2023-07-28T11:52:57;96307.22;;;23.32;100.00
36598;BME280;22607;49.550;11.940;2023-07-28T11:55:24;96300.69;;;24.27;100.00
36598;BME280;22607;49.550;11.940;2023-07-28T11:57:53;96301.47;;;24.28;93.85
36598;BME280;22607;49.550;11.940;2023-07-28T12:00:37;96301.19;;;24.34;97.53
36598;BME280;22607;49.550;11.940;2023-07-28T12:03:06;96300.53;;;24.63;88.51
36598;BME280;22607;49.550;11.940;2023-07-28T12:05:58;96313.44;;;24.56;88.14
36598;BME280;22607;49.550;11.940;2023-07-28T12:08:39;96307.41;;;24.85;88.55
36598;BME280;22607;49.550;11.940;2023-07-28T12:11:11;96307.97;;;24.82;82.91
36598;BME280;22607;49.550;11.940;2023-07-28T12:13:51;96307.09;;;24.92;84.20
36598;BME280;22607;49.550;11.940;2023-07-28T12:16:40;96306.63;;;24.80;82.70
36598;BME280;22607;49.550;11.940;2023-07-28T12:19:13;96310.75;;;24.56;84.36
36598;BME280;22607;49.550;11.940;2023-07-28T12:21:40;96314.38;;;24.92;81.12
36598;BME280;22607;49.550;11.940;2023-07-28T12:24:07;96315.31;;;25.11;82.33
36598;BME280;22607;49.550;11.940;2023-07-28T12:26:34;96306.00;;;25.38;76.21
36598;BME280;22607;49.550;11.940;2023-07-28T12:29:05;96317.16;;;24.65;76.41
36598;BME280;22607;49.550;11.940;2023-07-28T12:31:35;96313.31;;;24.21;84.11
36598;BME280;22607;49.550;11.940;2023-07-28T12:34:11;96314.09;;;24.27;84.50
36598;BME280;22607;49.550;11.940;2023-07-28T12:36:50;96322.72;;;24.14;86.55
36598;BME280;22607;49.550;11.940;2023-07-28T12:39:20;96323.03;;;23.91;90.31
36598;BME280;22607;49.550;11.940;2023-07-28T12:41:49;96312.53;;;24.10;83.80
36598;BME280;22607;49.550;11.940;2023-07-28T12:44:38;96320.56;;;24.16;81.09
36598;BME280;22607;49.550;11.940;2023-07-28T12:47:08;96313.28;;;24.32;86.06
36598;BME280;22607;49.550;11.940;2023-07-28T12:49:34;96315.66;;;24.38;84.80
36598;BME280;22607;49.550;11.940;2023-07-28T12:52:04;96310.38;;;24.07;85.81